Aeroporto :







RITROVATECI SU...

 
LOGIN :

Iscrizione | Disclaimer

   EN    FR    IT 

 









Sommario :    VFR   VFR Marginale   IFR   IFR Intensivo   IFR Molto Intensivo
Visibilità : 
Base nubi : 
>= 8 km
>= 3000ft
5 / 8 km
1000 / 3000 ft
1500m / 5 km
500 / 1000 ft
800 / 1500m
200 / 500 ft
< 800m
< 200 ft
Simboli :   Temporali  Nebbia  Neve Forte  Precipitazioni Forti  Vento > 20 kt







- Altitudine del aeroporto : 1005 ft
- Codice IATA : YAH


CYAH - La Grande-4

ULTIMO METAR :
  • 151204Z AUTO 36003KT 340V050 3SM BR BKN005 OVC009 10/09 A2973 RMK SLP079

METARs OBSOLETI :
  • 151144Z AUTO 35003KT 330V030 2 1/4SM BR BKN005 OVC009 10/09 A2972 RMK SLP076
  • 151121Z AUTO 36003KT 5SM BR BKN007 OVC011 10/09 A2972 RMK SLP074
  • 151109Z AUTO 01003KT 330V040 4SM -RA BR BKN005 OVC010 10/09 A2971 RMK SLP073
  • 151045Z AUTO VRB02KT 2 1/2SM -RA BR BKN003 OVC008 10/09 A2970 RMK SLP068
  • 151032Z AUTO VRB02KT 3SM -RA BR BKN005 OVC011 10/09 A2970 RMK SLP067
  • 151016Z AUTO 02004KT 350V050 3SM -RA BR SCT005 OVC011 10/10 A2969 RMK SLP065
  • 151002Z AUTO 02003KT 310V050 3SM -RA BR BKN005 OVC011 10/10 A2969 RMK SLP063
  • 150926Z AUTO 25006KT 1 3/4SM -RA BR BKN007 OVC013 10/09 A2967 RMK SLP058
  • 150900Z AUTO 25007KT 1 1/4SM -RA BR OVC004 10/09 A2966 RMK SLP056

TAF TAF CYAH
Valido dal 15 a 11 ore il 15 a 21 ore UTC


151038Z 1511/1521 01006KT 3SM -RA BR OVC005
TEMPO 1511/1514 6SM BR SCT005 OVC012
FM151400 01008G18KT P6SM OVC012
TEMPO 1514/1517 OVC008
FM151700 01008G18KT P6SM OVC015 RMK FCST BASED ON AUTO OBS. NXT FCST BY 151800Z
Nessun NOTAM noto per questo aeroporto.



MetMap, La meteo Aeronautica in un colpo d'occhio ! - Copyright ORBIFLY Dicembre 2007 - Disclaimer

ORBIFLY MET'MAP TEAM :

Programmazione e sviluppo : Alexandra Zaïnal
Concezione e sviluppo : Baudouin d'Aumeries
Co-Programmazione e sviluppo : Marc-Olivier Méhu
Supporto tecnico e logistico : Manuel Goepfert
Aiuto per la traduzione : Arnaldo La Scala

Contatto : metmap@orbifly.com




FONTI E CREDITI :

   NOAA